sensor_id;sensor_type;location;lat;lon;timestamp;P1;durP1;ratioP1;P2;durP2;ratioP2
32333;SDS011;18810;53.040;8.850;2022-11-21T00:00:53;51.47;;;28.38;;
32333;SDS011;18810;53.040;8.850;2022-11-21T00:03:19;49.35;;;27.05;;
32333;SDS011;18810;53.040;8.850;2022-11-21T00:05:46;48.33;;;27.48;;
32333;SDS011;18810;53.040;8.850;2022-11-21T00:08:14;48.53;;;27.30;;
32333;SDS011;18810;53.040;8.850;2022-11-21T00:10:44;51.70;;;28.40;;
32333;SDS011;18810;53.040;8.850;2022-11-21T00:13:14;54.80;;;28.52;;
32333;SDS011;18810;53.040;8.850;2022-11-21T00:15:42;46.75;;;26.42;;
32333;SDS011;18810;53.040;8.850;2022-11-21T00:18:08;44.38;;;26.40;;
32333;SDS011;18810;53.040;8.850;2022-11-21T00:20:35;44.03;;;26.67;;
32333;SDS011;18810;53.040;8.850;2022-11-21T00:23:02;51.58;;;26.83;;
32333;SDS011;18810;53.040;8.850;2022-11-21T00:25:28;48.45;;;27.83;;
32333;SDS011;18810;53.040;8.850;2022-11-21T00:27:54;43.00;;;24.85;;
32333;SDS011;18810;53.040;8.850;2022-11-21T00:30:19;46.65;;;26.38;;
32333;SDS011;18810;53.040;8.850;2022-11-21T00:32:45;46.63;;;26.98;;
32333;SDS011;18810;53.040;8.850;2022-11-21T00:35:11;43.33;;;25.92;;
32333;SDS011;18810;53.040;8.850;2022-11-21T00:37:38;48.08;;;26.92;;
32333;SDS011;18810;53.040;8.850;2022-11-21T00:40:04;47.72;;;27.15;;
32333;SDS011;18810;53.040;8.850;2022-11-21T00:42:30;46.22;;;26.77;;
32333;SDS011;18810;53.040;8.850;2022-11-21T00:44:56;49.90;;;26.38;;
32333;SDS011;18810;53.040;8.850;2022-11-21T00:47:22;46.55;;;26.15;;
32333;SDS011;18810;53.040;8.850;2022-11-21T00:49:48;44.47;;;25.80;;
32333;SDS011;18810;53.040;8.850;2022-11-21T00:52:14;42.70;;;24.63;;
32333;SDS011;18810;53.040;8.850;2022-11-21T00:54:41;45.55;;;25.58;;
32333;SDS011;18810;53.040;8.850;2022-11-21T00:57:06;47.00;;;25.50;;
32333;SDS011;18810;53.040;8.850;2022-11-21T00:59:32;45.67;;;25.88;;
32333;SDS011;18810;53.040;8.850;2022-11-21T01:01:58;43.38;;;25.13;;
32333;SDS011;18810;53.040;8.850;2022-11-21T01:04:24;45.65;;;26.40;;
32333;SDS011;18810;53.040;8.850;2022-11-21T01:06:49;46.92;;;26.73;;
32333;SDS011;18810;53.040;8.850;2022-11-21T01:09:15;42.47;;;25.05;;
32333;SDS011;18810;53.040;8.850;2022-11-21T01:11:41;43.65;;;25.58;;
32333;SDS011;18810;53.040;8.850;2022-11-21T01:14:06;52.65;;;26.48;;
32333;SDS011;18810;53.040;8.850;2022-11-21T01:16:32;50.45;;;27.65;;
32333;SDS011;18810;53.040;8.850;2022-11-21T01:18:59;43.85;;;25.98;;
32333;SDS011;18810;53.040;8.850;2022-11-21T01:21:28;47.78;;;26.45;;
32333;SDS011;18810;53.040;8.850;2022-11-21T01:23:55;50.10;;;27.75;;
32333;SDS011;18810;53.040;8.850;2022-11-21T01:26:24;49.83;;;26.10;;
32333;SDS011;18810;53.040;8.850;2022-11-21T01:28:52;44.75;;;26.38;;
32333;SDS011;18810;53.040;8.850;2022-11-21T01:31:19;48.22;;;26.95;;
32333;SDS011;18810;53.040;8.850;2022-11-21T01:33:46;45.42;;;26.77;;
32333;SDS011;18810;53.040;8.850;2022-11-21T01:36:13;44.13;;;26.52;;
32333;SDS011;18810;53.040;8.850;2022-11-21T01:38:42;47.72;;;26.73;;
32333;SDS011;18810;53.040;8.850;2022-11-21T01:41:10;47.85;;;27.00;;
32333;SDS011;18810;53.040;8.850;2022-11-21T01:43:36;50.63;;;27.92;;
32333;SDS011;18810;53.040;8.850;2022-11-21T01:46:04;50.28;;;27.92;;
32333;SDS011;18810;53.040;8.850;2022-11-21T01:51:04;50.25;;;28.85;;
32333;SDS011;18810;53.040;8.850;2022-11-21T01:56:52;54.47;;;29.75;;
32333;SDS011;18810;53.040;8.850;2022-11-21T02:02:14;52.17;;;28.98;;
32333;SDS011;18810;53.040;8.850;2022-11-21T02:07:11;51.72;;;28.00;;
32333;SDS011;18810;53.040;8.850;2022-11-21T02:09:39;58.17;;;29.73;;
32333;SDS011;18810;53.040;8.850;2022-11-21T02:12:24;50.88;;;29.65;;
32333;SDS011;18810;53.040;8.850;2022-11-21T02:14:54;52.55;;;29.42;;
32333;SDS011;18810;53.040;8.850;2022-11-21T02:17:22;50.88;;;28.35;;
32333;SDS011;18810;53.040;8.850;2022-11-21T02:19:52;53.58;;;29.65;;
32333;SDS011;18810;53.040;8.850;2022-11-21T02:22:31;50.45;;;28.65;;
32333;SDS011;18810;53.040;8.850;2022-11-21T02:25:13;48.65;;;27.75;;
32333;SDS011;18810;53.040;8.850;2022-11-21T02:27:42;48.47;;;28.85;;
32333;SDS011;18810;53.040;8.850;2022-11-21T02:30:09;47.47;;;27.92;;
32333;SDS011;18810;53.040;8.850;2022-11-21T02:32:37;52.05;;;28.60;;
32333;SDS011;18810;53.040;8.850;2022-11-21T02:35:05;50.90;;;28.38;;
32333;SDS011;18810;53.040;8.850;2022-11-21T02:37:32;48.17;;;27.65;;
32333;SDS011;18810;53.040;8.850;2022-11-21T02:40:02;52.28;;;27.35;;
32333;SDS011;18810;53.040;8.850;2022-11-21T02:42:35;48.75;;;26.42;;
32333;SDS011;18810;53.040;8.850;2022-11-21T02:45:24;48.50;;;27.20;;
32333;SDS011;18810;53.040;8.850;2022-11-21T02:47:54;46.47;;;26.83;;
32333;SDS011;18810;53.040;8.850;2022-11-21T02:50:28;46.25;;;26.40;;
32333;SDS011;18810;53.040;8.850;2022-11-21T02:52:55;45.72;;;26.23;;
32333;SDS011;18810;53.040;8.850;2022-11-21T02:55:21;46.50;;;25.50;;
32333;SDS011;18810;53.040;8.850;2022-11-21T02:57:48;49.85;;;26.92;;
32333;SDS011;18810;53.040;8.850;2022-11-21T03:00:14;51.90;;;28.58;;
32333;SDS011;18810;53.040;8.850;2022-11-21T03:02:43;50.50;;;27.52;;
32333;SDS011;18810;53.040;8.850;2022-11-21T03:05:10;55.97;;;27.77;;
32333;SDS011;18810;53.040;8.850;2022-11-21T03:07:37;51.42;;;28.85;;
32333;SDS011;18810;53.040;8.850;2022-11-21T03:10:03;50.95;;;28.70;;
32333;SDS011;18810;53.040;8.850;2022-11-21T03:12:29;51.45;;;28.90;;
32333;SDS011;18810;53.040;8.850;2022-11-21T03:14:54;53.15;;;28.58;;
32333;SDS011;18810;53.040;8.850;2022-11-21T03:17:20;54.75;;;30.92;;
32333;SDS011;18810;53.040;8.850;2022-11-21T03:19:46;45.85;;;27.83;;
32333;SDS011;18810;53.040;8.850;2022-11-21T03:22:12;52.78;;;27.67;;
32333;SDS011;18810;53.040;8.850;2022-11-21T03:24:39;48.05;;;27.20;;
32333;SDS011;18810;53.040;8.850;2022-11-21T03:27:04;53.15;;;27.92;;
32333;SDS011;18810;53.040;8.850;2022-11-21T03:29:30;50.42;;;28.15;;
32333;SDS011;18810;53.040;8.850;2022-11-21T03:31:56;49.25;;;27.83;;
32333;SDS011;18810;53.040;8.850;2022-11-21T03:34:22;53.72;;;29.60;;
32333;SDS011;18810;53.040;8.850;2022-11-21T03:36:49;48.67;;;28.08;;
32333;SDS011;18810;53.040;8.850;2022-11-21T03:39:15;48.92;;;27.23;;
32333;SDS011;18810;53.040;8.850;2022-11-21T03:41:40;48.13;;;26.50;;
32333;SDS011;18810;53.040;8.850;2022-11-21T03:44:08;48.33;;;26.50;;
32333;SDS011;18810;53.040;8.850;2022-11-21T03:46:35;47.35;;;26.55;;
32333;SDS011;18810;53.040;8.850;2022-11-21T03:49:03;48.72;;;27.13;;
32333;SDS011;18810;53.040;8.850;2022-11-21T03:51:29;49.63;;;28.30;;
32333;SDS011;18810;53.040;8.850;2022-11-21T03:53:55;49.90;;;28.20;;
32333;SDS011;18810;53.040;8.850;2022-11-21T03:56:21;49.17;;;27.40;;
32333;SDS011;18810;53.040;8.850;2022-11-21T03:58:47;53.78;;;28.85;;
32333;SDS011;18810;53.040;8.850;2022-11-21T04:01:13;46.42;;;27.67;;
32333;SDS011;18810;53.040;8.850;2022-11-21T04:03:40;48.97;;;27.20;;
32333;SDS011;18810;53.040;8.850;2022-11-21T04:06:07;46.63;;;27.05;;
32333;SDS011;18810;53.040;8.850;2022-11-21T04:08:33;49.88;;;27.25;;
32333;SDS011;18810;53.040;8.850;2022-11-21T04:10:59;45.45;;;25.98;;
32333;SDS011;18810;53.040;8.850;2022-11-21T04:13:25;46.95;;;27.13;;
32333;SDS011;18810;53.040;8.850;2022-11-21T04:15:51;52.38;;;28.95;;
32333;SDS011;18810;53.040;8.850;2022-11-21T04:18:16;45.75;;;27.50;;
32333;SDS011;18810;53.040;8.850;2022-11-21T04:20:42;51.33;;;28.20;;
32333;SDS011;18810;53.040;8.850;2022-11-21T04:23:14;53.30;;;27.50;;
32333;SDS011;18810;53.040;8.850;2022-11-21T04:25:58;51.78;;;28.42;;
32333;SDS011;18810;53.040;8.850;2022-11-21T04:28:24;47.20;;;26.75;;
32333;SDS011;18810;53.040;8.850;2022-11-21T04:30:50;50.03;;;27.35;;
32333;SDS011;18810;53.040;8.850;2022-11-21T04:33:16;48.40;;;27.85;;
32333;SDS011;18810;53.040;8.850;2022-11-21T04:35:43;52.67;;;29.08;;
32333;SDS011;18810;53.040;8.850;2022-11-21T04:38:10;49.58;;;27.85;;
32333;SDS011;18810;53.040;8.850;2022-11-21T04:40:36;60.75;;;29.80;;
32333;SDS011;18810;53.040;8.850;2022-11-21T04:43:02;65.85;;;29.80;;
32333;SDS011;18810;53.040;8.850;2022-11-21T04:45:28;52.90;;;27.77;;
32333;SDS011;18810;53.040;8.850;2022-11-21T04:47:54;53.38;;;29.52;;
32333;SDS011;18810;53.040;8.850;2022-11-21T04:50:20;56.25;;;29.92;;
32333;SDS011;18810;53.040;8.850;2022-11-21T04:52:53;57.13;;;29.23;;
32333;SDS011;18810;53.040;8.850;2022-11-21T04:55:20;50.30;;;28.35;;
32333;SDS011;18810;53.040;8.850;2022-11-21T04:57:47;50.38;;;28.38;;
32333;SDS011;18810;53.040;8.850;2022-11-21T05:00:14;52.08;;;28.20;;
32333;SDS011;18810;53.040;8.850;2022-11-21T05:02:40;53.85;;;28.70;;
32333;SDS011;18810;53.040;8.850;2022-11-21T05:05:06;47.55;;;27.42;;
32333;SDS011;18810;53.040;8.850;2022-11-21T05:07:33;51.63;;;29.10;;
32333;SDS011;18810;53.040;8.850;2022-11-21T05:09:59;54.95;;;30.02;;
32333;SDS011;18810;53.040;8.850;2022-11-21T05:12:25;56.35;;;29.70;;
32333;SDS011;18810;53.040;8.850;2022-11-21T05:15:09;55.75;;;28.80;;
32333;SDS011;18810;53.040;8.850;2022-11-21T05:17:35;56.88;;;29.70;;
32333;SDS011;18810;53.040;8.850;2022-11-21T05:20:01;53.38;;;28.83;;
32333;SDS011;18810;53.040;8.850;2022-11-21T05:22:27;58.80;;;30.73;;
32333;SDS011;18810;53.040;8.850;2022-11-21T05:24:53;53.53;;;29.50;;
32333;SDS011;18810;53.040;8.850;2022-11-21T05:27:18;53.85;;;29.27;;
32333;SDS011;18810;53.040;8.850;2022-11-21T05:29:44;57.63;;;31.15;;
32333;SDS011;18810;53.040;8.850;2022-11-21T05:32:10;54.20;;;29.75;;
32333;SDS011;18810;53.040;8.850;2022-11-21T05:34:35;52.95;;;30.00;;
32333;SDS011;18810;53.040;8.850;2022-11-21T05:37:01;60.20;;;31.60;;
32333;SDS011;18810;53.040;8.850;2022-11-21T05:39:27;63.15;;;32.38;;
32333;SDS011;18810;53.040;8.850;2022-11-21T05:41:53;60.30;;;32.88;;
32333;SDS011;18810;53.040;8.850;2022-11-21T05:44:19;63.50;;;32.83;;
32333;SDS011;18810;53.040;8.850;2022-11-21T05:46:44;56.35;;;30.38;;
32333;SDS011;18810;53.040;8.850;2022-11-21T05:49:10;60.28;;;31.20;;
32333;SDS011;18810;53.040;8.850;2022-11-21T05:51:36;65.53;;;32.47;;
32333;SDS011;18810;53.040;8.850;2022-11-21T05:54:02;60.22;;;31.30;;
32333;SDS011;18810;53.040;8.850;2022-11-21T05:56:29;62.42;;;32.05;;
32333;SDS011;18810;53.040;8.850;2022-11-21T05:58:55;59.55;;;31.70;;
32333;SDS011;18810;53.040;8.850;2022-11-21T06:01:22;61.50;;;31.13;;
32333;SDS011;18810;53.040;8.850;2022-11-21T06:04:23;65.30;;;33.17;;
32333;SDS011;18810;53.040;8.850;2022-11-21T06:06:49;58.72;;;31.40;;
32333;SDS011;18810;53.040;8.850;2022-11-21T06:09:15;58.80;;;31.75;;
32333;SDS011;18810;53.040;8.850;2022-11-21T06:11:40;63.97;;;33.08;;
32333;SDS011;18810;53.040;8.850;2022-11-21T06:14:06;66.35;;;34.83;;
32333;SDS011;18810;53.040;8.850;2022-11-21T06:16:32;63.50;;;32.35;;
32333;SDS011;18810;53.040;8.850;2022-11-21T06:18:57;70.78;;;34.85;;
32333;SDS011;18810;53.040;8.850;2022-11-21T06:21:24;66.88;;;33.90;;
32333;SDS011;18810;53.040;8.850;2022-11-21T06:23:52;70.55;;;36.03;;
32333;SDS011;18810;53.040;8.850;2022-11-21T06:26:20;74.43;;;34.80;;
32333;SDS011;18810;53.040;8.850;2022-11-21T06:28:47;71.35;;;34.50;;
32333;SDS011;18810;53.040;8.850;2022-11-21T06:31:14;74.03;;;35.20;;
32333;SDS011;18810;53.040;8.850;2022-11-21T06:33:41;82.30;;;39.83;;
32333;SDS011;18810;53.040;8.850;2022-11-21T06:36:14;74.35;;;39.97;;
32333;SDS011;18810;53.040;8.850;2022-11-21T06:38:41;79.07;;;38.70;;
32333;SDS011;18810;53.040;8.850;2022-11-21T06:41:12;97.88;;;37.47;;
32333;SDS011;18810;53.040;8.850;2022-11-21T06:43:39;67.03;;;32.72;;
32333;SDS011;18810;53.040;8.850;2022-11-21T06:46:06;68.75;;;34.28;;
32333;SDS011;18810;53.040;8.850;2022-11-21T06:48:32;73.80;;;35.22;;
32333;SDS011;18810;53.040;8.850;2022-11-21T06:51:06;92.75;;;35.03;;
32333;SDS011;18810;53.040;8.850;2022-11-21T06:53:35;72.53;;;33.55;;
32333;SDS011;18810;53.040;8.850;2022-11-21T06:56:01;99.57;;;34.15;;
32333;SDS011;18810;53.040;8.850;2022-11-21T06:58:27;85.90;;;32.63;;
32333;SDS011;18810;53.040;8.850;2022-11-21T07:00:53;103.38;;;33.22;;
32333;SDS011;18810;53.040;8.850;2022-11-21T07:03:19;88.93;;;33.85;;
32333;SDS011;18810;53.040;8.850;2022-11-21T07:05:46;61.28;;;30.33;;
32333;SDS011;18810;53.040;8.850;2022-11-21T07:08:12;77.80;;;32.53;;
32333;SDS011;18810;53.040;8.850;2022-11-21T07:10:38;59.53;;;32.92;;
32333;SDS011;18810;53.040;8.850;2022-11-21T07:13:03;158.95;;;38.60;;
32333;SDS011;18810;53.040;8.850;2022-11-21T07:15:48;68.45;;;32.58;;
32333;SDS011;18810;53.040;8.850;2022-11-21T07:18:16;69.30;;;33.28;;
32333;SDS011;18810;53.040;8.850;2022-11-21T07:20:42;72.13;;;32.10;;
32333;SDS011;18810;53.040;8.850;2022-11-21T07:23:08;70.35;;;34.90;;
32333;SDS011;18810;53.040;8.850;2022-11-21T07:25:33;78.97;;;33.70;;
32333;SDS011;18810;53.040;8.850;2022-11-21T07:28:00;64.57;;;30.85;;
32333;SDS011;18810;53.040;8.850;2022-11-21T07:30:26;74.80;;;32.58;;
32333;SDS011;18810;53.040;8.850;2022-11-21T07:32:59;60.20;;;30.60;;
32333;SDS011;18810;53.040;8.850;2022-11-21T07:35:26;52.15;;;26.52;;
32333;SDS011;18810;53.040;8.850;2022-11-21T07:37:52;59.53;;;30.77;;
32333;SDS011;18810;53.040;8.850;2022-11-21T07:40:18;76.88;;;32.88;;
32333;SDS011;18810;53.040;8.850;2022-11-21T07:42:44;60.97;;;30.27;;
32333;SDS011;18810;53.040;8.850;2022-11-21T07:45:11;94.53;;;35.13;;
32333;SDS011;18810;53.040;8.850;2022-11-21T07:47:37;66.88;;;30.60;;
32333;SDS011;18810;53.040;8.850;2022-11-21T07:50:04;69.25;;;31.92;;
32333;SDS011;18810;53.040;8.850;2022-11-21T07:52:30;79.95;;;33.75;;
32333;SDS011;18810;53.040;8.850;2022-11-21T07:54:56;77.68;;;34.22;;
32333;SDS011;18810;53.040;8.850;2022-11-21T07:57:23;89.45;;;38.88;;
32333;SDS011;18810;53.040;8.850;2022-11-21T07:59:49;75.18;;;36.25;;
32333;SDS011;18810;53.040;8.850;2022-11-21T08:02:17;74.68;;;35.22;;
32333;SDS011;18810;53.040;8.850;2022-11-21T08:04:47;88.03;;;38.50;;
32333;SDS011;18810;53.040;8.850;2022-11-21T08:07:13;88.57;;;40.33;;
32333;SDS011;18810;53.040;8.850;2022-11-21T08:09:42;88.57;;;39.80;;
32333;SDS011;18810;53.040;8.850;2022-11-21T08:12:09;89.93;;;41.35;;
32333;SDS011;18810;53.040;8.850;2022-11-21T08:14:35;90.93;;;44.95;;
32333;SDS011;18810;53.040;8.850;2022-11-21T08:17:01;87.85;;;41.58;;
32333;SDS011;18810;53.040;8.850;2022-11-21T08:19:27;90.05;;;41.92;;
32333;SDS011;18810;53.040;8.850;2022-11-21T08:21:53;81.38;;;40.75;;
32333;SDS011;18810;53.040;8.850;2022-11-21T08:24:19;82.43;;;39.10;;
32333;SDS011;18810;53.040;8.850;2022-11-21T08:26:45;78.65;;;37.58;;
32333;SDS011;18810;53.040;8.850;2022-11-21T08:29:11;74.07;;;35.95;;
32333;SDS011;18810;53.040;8.850;2022-11-21T08:31:39;71.10;;;39.20;;
32333;SDS011;18810;53.040;8.850;2022-11-21T08:34:05;79.25;;;45.47;;
32333;SDS011;18810;53.040;8.850;2022-11-21T08:36:31;63.28;;;36.72;;
32333;SDS011;18810;53.040;8.850;2022-11-21T08:38:58;56.00;;;30.05;;
32333;SDS011;18810;53.040;8.850;2022-11-21T08:41:23;58.67;;;30.15;;
32333;SDS011;18810;53.040;8.850;2022-11-21T08:44:08;53.08;;;30.35;;
32333;SDS011;18810;53.040;8.850;2022-11-21T08:46:34;52.13;;;29.30;;
32333;SDS011;18810;53.040;8.850;2022-11-21T08:49:04;50.22;;;29.38;;
32333;SDS011;18810;53.040;8.850;2022-11-21T08:51:31;50.45;;;28.08;;
32333;SDS011;18810;53.040;8.850;2022-11-21T08:53:57;48.47;;;27.60;;
32333;SDS011;18810;53.040;8.850;2022-11-21T08:56:23;49.42;;;27.23;;
32333;SDS011;18810;53.040;8.850;2022-11-21T08:58:49;43.67;;;26.05;;
32333;SDS011;18810;53.040;8.850;2022-11-21T09:01:15;45.67;;;26.40;;
32333;SDS011;18810;53.040;8.850;2022-11-21T09:03:41;46.38;;;27.30;;
32333;SDS011;18810;53.040;8.850;2022-11-21T09:06:06;44.22;;;25.25;;
32333;SDS011;18810;53.040;8.850;2022-11-21T09:08:32;48.08;;;26.73;;
32333;SDS011;18810;53.040;8.850;2022-11-21T09:11:02;47.67;;;25.83;;
32333;SDS011;18810;53.040;8.850;2022-11-21T09:13:29;46.35;;;27.33;;
32333;SDS011;18810;53.040;8.850;2022-11-21T09:15:56;53.38;;;30.50;;
32333;SDS011;18810;53.040;8.850;2022-11-21T09:18:41;54.28;;;31.50;;
32333;SDS011;18810;53.040;8.850;2022-11-21T09:21:07;61.60;;;38.10;;
32333;SDS011;18810;53.040;8.850;2022-11-21T09:23:33;54.72;;;31.20;;
32333;SDS011;18810;53.040;8.850;2022-11-21T09:25:59;51.50;;;29.70;;
32333;SDS011;18810;53.040;8.850;2022-11-21T09:28:25;51.05;;;31.05;;
32333;SDS011;18810;53.040;8.850;2022-11-21T09:30:51;55.03;;;33.75;;
32333;SDS011;18810;53.040;8.850;2022-11-21T09:33:16;46.78;;;30.35;;
32333;SDS011;18810;53.040;8.850;2022-11-21T09:35:42;50.85;;;26.75;;
32333;SDS011;18810;53.040;8.850;2022-11-21T09:38:08;43.88;;;26.38;;
32333;SDS011;18810;53.040;8.850;2022-11-21T09:40:34;48.08;;;27.85;;
32333;SDS011;18810;53.040;8.850;2022-11-21T09:45:55;40.60;;;26.83;;
32333;SDS011;18810;53.040;8.850;2022-11-21T09:51:06;40.63;;;24.23;;
32333;SDS011;18810;53.040;8.850;2022-11-21T09:53:37;42.08;;;24.77;;
32333;SDS011;18810;53.040;8.850;2022-11-21T09:56:14;43.85;;;24.95;;
32333;SDS011;18810;53.040;8.850;2022-11-21T10:01:18;38.08;;;24.45;;
32333;SDS011;18810;53.040;8.850;2022-11-21T10:03:45;38.42;;;24.17;;
32333;SDS011;18810;53.040;8.850;2022-11-21T10:06:19;39.35;;;23.70;;
32333;SDS011;18810;53.040;8.850;2022-11-21T10:22:26;35.55;;;22.90;;
32333;SDS011;18810;53.040;8.850;2022-11-21T10:25:29;35.85;;;23.02;;
32333;SDS011;18810;53.040;8.850;2022-11-21T10:28:06;36.08;;;23.35;;
32333;SDS011;18810;53.040;8.850;2022-11-21T10:30:41;32.95;;;22.00;;
32333;SDS011;18810;53.040;8.850;2022-11-21T10:36:04;39.88;;;23.85;;
32333;SDS011;18810;53.040;8.850;2022-11-21T10:38:55;39.10;;;23.70;;
32333;SDS011;18810;53.040;8.850;2022-11-21T10:44:35;37.90;;;23.52;;
32333;SDS011;18810;53.040;8.850;2022-11-21T10:47:20;33.22;;;22.65;;
32333;SDS011;18810;53.040;8.850;2022-11-21T10:52:34;37.55;;;22.40;;
32333;SDS011;18810;53.040;8.850;2022-11-21T10:55:09;35.63;;;22.42;;
32333;SDS011;18810;53.040;8.850;2022-11-21T10:57:44;35.95;;;21.75;;
32333;SDS011;18810;53.040;8.850;2022-11-21T11:00:24;35.17;;;21.08;;
32333;SDS011;18810;53.040;8.850;2022-11-21T11:08:08;34.70;;;21.77;;
32333;SDS011;18810;53.040;8.850;2022-11-21T11:10:36;32.95;;;20.95;;
32333;SDS011;18810;53.040;8.850;2022-11-21T11:13:09;32.25;;;21.13;;
32333;SDS011;18810;53.040;8.850;2022-11-21T11:16:05;36.30;;;22.27;;
32333;SDS011;18810;53.040;8.850;2022-11-21T11:18:36;32.88;;;21.00;;
32333;SDS011;18810;53.040;8.850;2022-11-21T11:21:10;35.70;;;21.35;;
32333;SDS011;18810;53.040;8.850;2022-11-21T11:23:45;36.85;;;21.50;;
32333;SDS011;18810;53.040;8.850;2022-11-21T11:28:52;34.50;;;21.48;;
32333;SDS011;18810;53.040;8.850;2022-11-21T11:31:43;33.03;;;20.58;;
32333;SDS011;18810;53.040;8.850;2022-11-21T11:34:15;29.83;;;19.90;;
32333;SDS011;18810;53.040;8.850;2022-11-21T11:36:52;34.25;;;19.92;;
32333;SDS011;18810;53.040;8.850;2022-11-21T11:48:29;31.75;;;19.20;;
32333;SDS011;18810;53.040;8.850;2022-11-21T11:50:58;33.78;;;19.58;;
32333;SDS011;18810;53.040;8.850;2022-11-21T11:53:28;33.50;;;20.20;;
32333;SDS011;18810;53.040;8.850;2022-11-21T11:56:05;32.78;;;19.42;;
32333;SDS011;18810;53.040;8.850;2022-11-21T11:58:42;32.70;;;19.83;;
32333;SDS011;18810;53.040;8.850;2022-11-21T12:01:17;37.65;;;20.95;;
32333;SDS011;18810;53.040;8.850;2022-11-21T12:08:52;36.25;;;20.15;;
32333;SDS011;18810;53.040;8.850;2022-11-21T12:11:32;38.15;;;20.35;;
32333;SDS011;18810;53.040;8.850;2022-11-21T12:14:35;33.13;;;19.42;;
32333;SDS011;18810;53.040;8.850;2022-11-21T12:17:39;36.05;;;19.38;;
32333;SDS011;18810;53.040;8.850;2022-11-21T12:20:19;34.60;;;20.13;;
32333;SDS011;18810;53.040;8.850;2022-11-21T12:22:48;34.85;;;19.65;;
32333;SDS011;18810;53.040;8.850;2022-11-21T12:25:18;34.30;;;20.33;;
32333;SDS011;18810;53.040;8.850;2022-11-21T12:27:49;33.50;;;19.02;;
32333;SDS011;18810;53.040;8.850;2022-11-21T12:33:15;29.83;;;18.67;;
32333;SDS011;18810;53.040;8.850;2022-11-21T12:46:24;27.90;;;18.27;;
32333;SDS011;18810;53.040;8.850;2022-11-21T12:55:13;28.08;;;17.55;;
32333;SDS011;18810;53.040;8.850;2022-11-21T13:05:45;23.75;;;15.75;;
32333;SDS011;18810;53.040;8.850;2022-11-21T13:08:15;25.17;;;16.15;;
32333;SDS011;18810;53.040;8.850;2022-11-21T13:10:51;21.45;;;14.98;;
32333;SDS011;18810;53.040;8.850;2022-11-21T13:14:01;24.30;;;15.05;;
32333;SDS011;18810;53.040;8.850;2022-11-21T13:16:35;20.13;;;13.63;;
32333;SDS011;18810;53.040;8.850;2022-11-21T13:21:49;24.10;;;14.50;;
32333;SDS011;18810;53.040;8.850;2022-11-21T13:32:38;22.90;;;15.77;;
32333;SDS011;18810;53.040;8.850;2022-11-21T13:45:47;32.00;;;19.52;;
32333;SDS011;18810;53.040;8.850;2022-11-21T13:48:16;28.63;;;17.70;;
32333;SDS011;18810;53.040;8.850;2022-11-21T14:05:36;32.05;;;19.48;;
32333;SDS011;18810;53.040;8.850;2022-11-21T14:08:13;31.77;;;19.55;;
32333;SDS011;18810;53.040;8.850;2022-11-21T14:10:51;33.05;;;20.05;;
32333;SDS011;18810;53.040;8.850;2022-11-21T14:18:47;34.75;;;20.92;;
32333;SDS011;18810;53.040;8.850;2022-11-21T14:21:31;32.20;;;20.15;;
32333;SDS011;18810;53.040;8.850;2022-11-21T14:24:02;34.67;;;22.17;;
32333;SDS011;18810;53.040;8.850;2022-11-21T14:26:39;37.10;;;22.48;;
32333;SDS011;18810;53.040;8.850;2022-11-21T14:31:51;36.38;;;22.35;;
32333;SDS011;18810;53.040;8.850;2022-11-21T14:34:26;37.10;;;22.15;;
32333;SDS011;18810;53.040;8.850;2022-11-21T14:37:02;36.03;;;22.40;;
32333;SDS011;18810;53.040;8.850;2022-11-21T14:39:33;34.60;;;21.63;;
32333;SDS011;18810;53.040;8.850;2022-11-21T14:42:04;36.28;;;23.23;;
32333;SDS011;18810;53.040;8.850;2022-11-21T14:44:36;33.17;;;20.70;;
32333;SDS011;18810;53.040;8.850;2022-11-21T14:47:04;38.40;;;22.33;;
32333;SDS011;18810;53.040;8.850;2022-11-21T14:49:47;35.72;;;23.02;;
32333;SDS011;18810;53.040;8.850;2022-11-21T14:52:27;38.08;;;22.70;;
32333;SDS011;18810;53.040;8.850;2022-11-21T14:57:26;38.78;;;23.08;;
32333;SDS011;18810;53.040;8.850;2022-11-21T14:59:55;38.35;;;23.73;;
32333;SDS011;18810;53.040;8.850;2022-11-21T15:02:27;38.90;;;23.20;;
32333;SDS011;18810;53.040;8.850;2022-11-21T15:04:59;42.15;;;24.10;;
32333;SDS011;18810;53.040;8.850;2022-11-21T15:07:28;41.53;;;22.92;;
32333;SDS011;18810;53.040;8.850;2022-11-21T15:09:59;40.08;;;22.85;;
32333;SDS011;18810;53.040;8.850;2022-11-21T15:17:47;35.20;;;21.00;;
32333;SDS011;18810;53.040;8.850;2022-11-21T15:20:18;44.83;;;23.92;;
32333;SDS011;18810;53.040;8.850;2022-11-21T15:22:45;44.00;;;24.38;;
32333;SDS011;18810;53.040;8.850;2022-11-21T15:27:41;43.17;;;25.05;;
32333;SDS011;18810;53.040;8.850;2022-11-21T15:32:57;51.50;;;26.52;;
32333;SDS011;18810;53.040;8.850;2022-11-21T15:35:40;48.30;;;26.92;;
32333;SDS011;18810;53.040;8.850;2022-11-21T15:43:39;47.95;;;25.33;;
32333;SDS011;18810;53.040;8.850;2022-11-21T15:48:48;47.13;;;23.85;;
32333;SDS011;18810;53.040;8.850;2022-11-21T15:51:18;49.08;;;26.50;;
32333;SDS011;18810;53.040;8.850;2022-11-21T15:53:45;52.92;;;29.90;;
32333;SDS011;18810;53.040;8.850;2022-11-21T15:56:12;47.25;;;28.60;;
32333;SDS011;18810;53.040;8.850;2022-11-21T15:58:39;49.88;;;28.38;;
32333;SDS011;18810;53.040;8.850;2022-11-21T16:01:05;43.72;;;26.38;;
32333;SDS011;18810;53.040;8.850;2022-11-21T16:03:40;40.25;;;23.83;;
32333;SDS011;18810;53.040;8.850;2022-11-21T16:06:06;43.95;;;26.65;;
32333;SDS011;18810;53.040;8.850;2022-11-21T16:08:31;49.90;;;26.08;;
32333;SDS011;18810;53.040;8.850;2022-11-21T16:10:57;48.42;;;26.73;;
32333;SDS011;18810;53.040;8.850;2022-11-21T16:13:24;41.92;;;24.88;;
32333;SDS011;18810;53.040;8.850;2022-11-21T16:15:49;46.33;;;26.35;;
32333;SDS011;18810;53.040;8.850;2022-11-21T16:18:15;55.40;;;28.80;;
32333;SDS011;18810;53.040;8.850;2022-11-21T16:20:41;53.92;;;29.52;;
32333;SDS011;18810;53.040;8.850;2022-11-21T16:23:08;46.80;;;26.83;;
32333;SDS011;18810;53.040;8.850;2022-11-21T16:25:35;50.70;;;28.10;;
32333;SDS011;18810;53.040;8.850;2022-11-21T16:28:01;47.20;;;27.15;;
32333;SDS011;18810;53.040;8.850;2022-11-21T16:30:27;47.20;;;26.80;;
32333;SDS011;18810;53.040;8.850;2022-11-21T16:32:53;50.90;;;27.77;;
32333;SDS011;18810;53.040;8.850;2022-11-21T16:35:23;50.90;;;28.27;;
32333;SDS011;18810;53.040;8.850;2022-11-21T16:37:48;51.20;;;29.08;;
32333;SDS011;18810;53.040;8.850;2022-11-21T16:40:16;52.13;;;26.33;;
32333;SDS011;18810;53.040;8.850;2022-11-21T16:42:42;55.28;;;29.35;;
32333;SDS011;18810;53.040;8.850;2022-11-21T16:45:08;56.45;;;29.75;;
32333;SDS011;18810;53.040;8.850;2022-11-21T16:47:35;53.53;;;30.13;;
32333;SDS011;18810;53.040;8.850;2022-11-21T16:50:01;53.55;;;30.08;;
32333;SDS011;18810;53.040;8.850;2022-11-21T16:52:29;50.38;;;27.25;;
32333;SDS011;18810;53.040;8.850;2022-11-21T16:54:58;50.47;;;28.65;;
32333;SDS011;18810;53.040;8.850;2022-11-21T16:57:25;53.92;;;28.42;;
32333;SDS011;18810;53.040;8.850;2022-11-21T16:59:51;49.03;;;26.73;;
32333;SDS011;18810;53.040;8.850;2022-11-21T17:02:17;49.72;;;25.40;;
32333;SDS011;18810;53.040;8.850;2022-11-21T17:04:43;50.17;;;26.50;;
32333;SDS011;18810;53.040;8.850;2022-11-21T17:07:09;45.28;;;24.55;;
32333;SDS011;18810;53.040;8.850;2022-11-21T17:09:34;47.80;;;25.98;;